Terminal Aerodrome Forecast
Issued by NWS

Home | Current Version | Previous Version | Text Only | Print | Product List | Glossary On
Versions: 1 2 3 4 5 6 7 8 9 10 11 12 13 14 15 16 17 18 19 20 21 22 23
000
FTUS46 KMTR 151140
TAFSFO
TAF
KSFO 151140Z 1512/1618 VRB03KT P6SM FEW200
     FM152000 32006KT P6SM BKN200
     FM160100 28013KT P6SM SCT150 BKN200
     FM160400 29016G21KT P6SM FEW025 BKN180
     FM160700 30020G27KT P6SM FEW090 SCT180
     FM161400 32018G24KT P6SM SCT200=

USA.gov is the U.S. government's official web portal to all federal, state and local government web resources and services.